sensor_id;sensor_type;location;lat;lon;timestamp;pressure;altitude;pressure_sealevel;temperature;humidity
61554;BME280;47425;51.976;5.326;2022-12-18T13:46:45;102222.41;;;17.93;37.78
61554;BME280;47425;51.976;5.326;2022-12-18T13:51:46;102215.78;;;18.08;37.56
61554;BME280;47425;51.976;5.326;2022-12-18T13:54:19;102204.13;;;18.14;37.50
61554;BME280;47425;51.976;5.326;2022-12-18T13:56:48;102203.09;;;18.18;37.39
61554;BME280;47425;51.976;5.326;2022-12-18T13:59:22;102199.44;;;18.22;37.63
61554;BME280;47425;51.976;5.326;2022-12-18T14:01:57;102203.72;;;18.26;37.56
61554;BME280;47425;51.976;5.326;2022-12-18T14:06:51;102194.75;;;18.30;37.33
61554;BME280;47425;51.976;5.326;2022-12-18T14:09:22;102192.13;;;18.30;37.25
61554;BME280;47425;51.976;5.326;2022-12-18T14:11:49;102193.97;;;18.28;37.12
61554;BME280;47425;51.976;5.326;2022-12-18T14:14:16;102191.38;;;18.25;37.15
61554;BME280;47425;51.976;5.326;2022-12-18T14:16:42;102175.59;;;18.22;37.13
61554;BME280;47425;51.976;5.326;2022-12-18T14:19:15;102175.69;;;18.19;37.40
61554;BME280;47425;51.976;5.326;2022-12-18T14:21:49;102179.41;;;18.13;36.95
61554;BME280;47425;51.976;5.326;2022-12-18T14:24:20;102182.13;;;18.10;37.32
61554;BME280;47425;51.976;5.326;2022-12-18T14:26:48;102178.78;;;18.03;37.21
61554;BME280;47425;51.976;5.326;2022-12-18T14:32:09;102161.41;;;17.94;37.35
61554;BME280;47425;51.976;5.326;2022-12-18T14:34:35;102158.81;;;17.91;36.98
61554;BME280;47425;51.976;5.326;2022-12-18T14:37:01;102157.97;;;17.89;37.05
61554;BME280;47425;51.976;5.326;2022-12-18T14:39:26;102154.47;;;17.89;37.08
61554;BME280;47425;51.976;5.326;2022-12-18T14:41:52;102151.84;;;17.89;36.80
61554;BME280;47425;51.976;5.326;2022-12-18T14:44:18;102150.09;;;17.88;36.92
61554;BME280;47425;51.976;5.326;2022-12-18T14:46:44;102149.31;;;17.84;37.51
61554;BME280;47425;51.976;5.326;2022-12-18T14:52:22;102146.97;;;17.73;36.88
61554;BME280;47425;51.976;5.326;2022-12-18T14:54:50;102153.28;;;17.69;36.60
61554;BME280;47425;51.976;5.326;2022-12-18T14:57:24;102155.13;;;17.67;36.26
61554;BME280;47425;51.976;5.326;2022-12-18T14:59:52;102152.47;;;17.67;36.23
61554;BME280;47425;51.976;5.326;2022-12-18T15:02:19;102141.03;;;17.65;36.12
61554;BME280;47425;51.976;5.326;2022-12-18T15:04:46;102136.59;;;17.66;35.65
61554;BME280;47425;51.976;5.326;2022-12-18T15:07:22;102131.28;;;17.66;35.61
61554;BME280;47425;51.976;5.326;2022-12-18T15:12:39;102147.19;;;17.66;35.39
61554;BME280;47425;51.976;5.326;2022-12-18T15:20:53;102140.13;;;17.66;34.23
61554;BME280;47425;51.976;5.326;2022-12-18T15:23:25;102133.63;;;17.76;34.41
61554;BME280;47425;51.976;5.326;2022-12-18T15:26:03;102130.63;;;17.89;34.40
61554;BME280;47425;51.976;5.326;2022-12-18T15:28:37;102124.13;;;17.99;34.51
61554;BME280;47425;51.976;5.326;2022-12-18T15:33:47;102143.13;;;18.14;34.52
61554;BME280;47425;51.976;5.326;2022-12-18T15:36:30;102133.25;;;18.19;34.43
61554;BME280;47425;51.976;5.326;2022-12-18T15:38:55;102136.41;;;18.30;34.25
61554;BME280;47425;51.976;5.326;2022-12-18T15:41:24;102139.22;;;18.25;34.39
61554;BME280;47425;51.976;5.326;2022-12-18T15:43:51;102130.38;;;18.26;34.42
61554;BME280;47425;51.976;5.326;2022-12-18T15:46:24;102132.19;;;18.24;34.66
61554;BME280;47425;51.976;5.326;2022-12-18T15:48:53;102131.28;;;18.25;34.69
61554;BME280;47425;51.976;5.326;2022-12-18T15:51:23;102119.78;;;18.25;34.99
61554;BME280;47425;51.976;5.326;2022-12-18T15:53:53;102117.19;;;18.23;34.42
61554;BME280;47425;51.976;5.326;2022-12-18T15:56:19;102116.38;;;18.21;34.22
61554;BME280;47425;51.976;5.326;2022-12-18T15:59:11;102111.03;;;18.23;34.65
61554;BME280;47425;51.976;5.326;2022-12-18T16:01:41;102102.13;;;18.25;34.49
61554;BME280;47425;51.976;5.326;2022-12-18T16:04:10;102100.25;;;18.29;35.06
61554;BME280;47425;51.976;5.326;2022-12-18T16:06:36;102095.63;;;18.34;35.68
61554;BME280;47425;51.976;5.326;2022-12-18T16:09:03;102093.75;;;18.38;35.66
61554;BME280;47425;51.976;5.326;2022-12-18T16:11:30;102089.28;;;18.40;36.41
61554;BME280;47425;51.976;5.326;2022-12-18T16:14:19;102084.81;;;18.40;36.56
61554;BME280;47425;51.976;5.326;2022-12-18T16:16:46;102083.84;;;18.43;36.77
61554;BME280;47425;51.976;5.326;2022-12-18T16:19:12;102076.66;;;18.47;36.54
61554;BME280;47425;51.976;5.326;2022-12-18T16:21:38;102074.69;;;18.53;36.54
61554;BME280;47425;51.976;5.326;2022-12-18T16:24:04;102065.56;;;18.60;36.19
61554;BME280;47425;51.976;5.326;2022-12-18T16:26:32;102064.50;;;18.66;36.59
61554;BME280;47425;51.976;5.326;2022-12-18T16:28:57;102059.03;;;18.71;36.11
61554;BME280;47425;51.976;5.326;2022-12-18T16:31:23;102050.84;;;18.77;36.01
61554;BME280;47425;51.976;5.326;2022-12-18T16:33:48;102062.16;;;18.82;35.98
61554;BME280;47425;51.976;5.326;2022-12-18T16:36:14;102054.09;;;18.85;36.04
61554;BME280;47425;51.976;5.326;2022-12-18T16:38:39;102046.06;;;18.88;35.79
61554;BME280;47425;51.976;5.326;2022-12-18T16:41:17;102043.34;;;18.90;35.78
61554;BME280;47425;51.976;5.326;2022-12-18T16:44:00;102037.16;;;18.89;35.63
61554;BME280;47425;51.976;5.326;2022-12-18T16:46:25;102054.88;;;18.89;35.71
61554;BME280;47425;51.976;5.326;2022-12-18T16:48:51;102046.94;;;18.87;35.44
61554;BME280;47425;51.976;5.326;2022-12-18T16:51:16;102037.31;;;18.85;35.38
61554;BME280;47425;51.976;5.326;2022-12-18T16:53:43;102033.03;;;18.81;35.44
61554;BME280;47425;51.976;5.326;2022-12-18T16:56:08;102038.47;;;18.76;35.61
61554;BME280;47425;51.976;5.326;2022-12-18T16:58:34;102034.22;;;18.72;35.33
61554;BME280;47425;51.976;5.326;2022-12-18T17:01:01;102030.00;;;18.66;36.05
61554;BME280;47425;51.976;5.326;2022-12-18T17:03:26;102030.16;;;18.61;35.91
61554;BME280;47425;51.976;5.326;2022-12-18T17:05:51;102030.31;;;18.57;35.84
61554;BME280;47425;51.976;5.326;2022-12-18T17:08:17;102036.66;;;18.53;35.84
61554;BME280;47425;51.976;5.326;2022-12-18T17:10:43;102032.44;;;18.47;35.81
61554;BME280;47425;51.976;5.326;2022-12-18T17:13:09;102032.56;;;18.44;35.77
61554;BME280;47425;51.976;5.326;2022-12-18T17:15:35;102038.00;;;18.39;36.04
61554;BME280;47425;51.976;5.326;2022-12-18T17:18:02;102037.28;;;18.34;36.19
61554;BME280;47425;51.976;5.326;2022-12-18T17:20:29;102038.25;;;18.32;36.08
61554;BME280;47425;51.976;5.326;2022-12-18T17:22:58;102048.00;;;18.31;36.28
61554;BME280;47425;51.976;5.326;2022-12-18T17:25:23;102043.66;;;18.28;35.82
61554;BME280;47425;51.976;5.326;2022-12-18T17:27:49;102035.75;;;18.27;37.15
61554;BME280;47425;51.976;5.326;2022-12-18T17:30:15;102035.47;;;18.36;37.13
61554;BME280;47425;51.976;5.326;2022-12-18T17:32:40;102031.41;;;18.51;37.13
61554;BME280;47425;51.976;5.326;2022-12-18T17:35:07;102030.88;;;18.67;37.78
61554;BME280;47425;51.976;5.326;2022-12-18T17:37:34;102026.09;;;18.76;37.40
61554;BME280;47425;51.976;5.326;2022-12-18T17:42:19;102043.09;;;18.96;37.63
61554;BME280;47425;51.976;5.326;2022-12-18T17:44:45;102036.78;;;19.00;37.57
61554;BME280;47425;51.976;5.326;2022-12-18T17:47:12;102040.25;;;19.02;38.05
61554;BME280;47425;51.976;5.326;2022-12-18T17:49:39;102037.47;;;19.05;38.38
61554;BME280;47425;51.976;5.326;2022-12-18T17:54:47;102037.44;;;19.07;37.82
61554;BME280;47425;51.976;5.326;2022-12-18T17:57:14;102040.94;;;19.07;38.34
61554;BME280;47425;51.976;5.326;2022-12-18T17:59:42;102026.00;;;19.05;37.73
61554;BME280;47425;51.976;5.326;2022-12-18T18:02:09;102027.78;;;19.04;37.53
61554;BME280;47425;51.976;5.326;2022-12-18T18:04:36;102027.81;;;19.03;37.71
61554;BME280;47425;51.976;5.326;2022-12-18T18:07:03;102030.53;;;19.01;37.86
61554;BME280;47425;51.976;5.326;2022-12-18T18:09:30;102027.94;;;19.00;37.32
61554;BME280;47425;51.976;5.326;2022-12-18T18:11:56;102037.72;;;18.99;37.48
61554;BME280;47425;51.976;5.326;2022-12-18T18:14:42;102028.06;;;18.97;37.41
61554;BME280;47425;51.976;5.326;2022-12-18T18:17:09;102023.66;;;18.95;37.05
61554;BME280;47425;51.976;5.326;2022-12-18T18:19:36;102023.72;;;18.94;37.51
61554;BME280;47425;51.976;5.326;2022-12-18T18:22:04;102026.38;;;18.94;37.02
61554;BME280;47425;51.976;5.326;2022-12-18T18:24:32;102035.25;;;18.93;37.08
61554;BME280;47425;51.976;5.326;2022-12-18T18:26:58;102022.91;;;18.92;37.02
61554;BME280;47425;51.976;5.326;2022-12-18T18:29:26;102022.91;;;18.92;37.23
61554;BME280;47425;51.976;5.326;2022-12-18T18:31:56;102039.72;;;18.92;36.92
61554;BME280;47425;51.976;5.326;2022-12-18T18:34:26;102028.19;;;18.93;36.32
61554;BME280;47425;51.976;5.326;2022-12-18T18:36:53;102013.97;;;18.94;36.43
61554;BME280;47425;51.976;5.326;2022-12-18T18:39:23;102009.53;;;18.95;36.51
61554;BME280;47425;51.976;5.326;2022-12-18T18:41:50;102017.44;;;18.97;36.25
61554;BME280;47425;51.976;5.326;2022-12-18T18:47:02;102013.13;;;18.94;36.38
61554;BME280;47425;51.976;5.326;2022-12-18T18:49:28;102017.56;;;18.93;36.05
61554;BME280;47425;51.976;5.326;2022-12-18T18:51:56;102005.28;;;18.91;36.24
61554;BME280;47425;51.976;5.326;2022-12-18T18:54:23;102008.84;;;18.90;36.29
61554;BME280;47425;51.976;5.326;2022-12-18T18:56:51;102000.88;;;18.90;36.28
61554;BME280;47425;51.976;5.326;2022-12-18T18:59:17;101993.84;;;18.89;35.73
61554;BME280;47425;51.976;5.326;2022-12-18T19:01:44;102005.31;;;18.89;36.11
61554;BME280;47425;51.976;5.326;2022-12-18T19:04:12;102011.50;;;18.90;36.12
61554;BME280;47425;51.976;5.326;2022-12-18T19:06:39;101993.00;;;18.87;36.19
61554;BME280;47425;51.976;5.326;2022-12-18T19:09:07;101999.13;;;18.89;36.04
61554;BME280;47425;51.976;5.326;2022-12-18T19:11:33;101992.97;;;18.88;36.16
61554;BME280;47425;51.976;5.326;2022-12-18T19:14:17;101998.22;;;18.90;35.59
61554;BME280;47425;51.976;5.326;2022-12-18T19:16:44;102003.53;;;18.90;35.56
61554;BME280;47425;51.976;5.326;2022-12-18T19:19:13;102016.81;;;18.90;35.60
61554;BME280;47425;51.976;5.326;2022-12-18T19:21:42;102012.34;;;18.90;35.34
61554;BME280;47425;51.976;5.326;2022-12-18T19:24:09;102004.44;;;18.89;35.54
61554;BME280;47425;51.976;5.326;2022-12-18T19:26:36;102007.19;;;18.86;35.93
61554;BME280;47425;51.976;5.326;2022-12-18T19:29:04;102004.53;;;18.86;35.44
61554;BME280;47425;51.976;5.326;2022-12-18T19:31:33;102002.78;;;18.85;35.44
61554;BME280;47425;51.976;5.326;2022-12-18T19:34:00;102010.88;;;18.82;35.10
61554;BME280;47425;51.976;5.326;2022-12-18T19:36:28;102002.16;;;18.78;35.31
61554;BME280;47425;51.976;5.326;2022-12-18T19:39:17;102012.66;;;18.81;35.64
61554;BME280;47425;51.976;5.326;2022-12-18T19:41:45;102007.28;;;18.83;35.63
61554;BME280;47425;51.976;5.326;2022-12-18T19:44:14;102007.34;;;18.81;35.44
61554;BME280;47425;51.976;5.326;2022-12-18T19:46:42;102002.03;;;18.81;35.05
61554;BME280;47425;51.976;5.326;2022-12-18T19:49:11;102009.09;;;18.82;35.22
61554;BME280;47425;51.976;5.326;2022-12-18T19:51:40;102010.88;;;18.82;35.25
61554;BME280;47425;51.976;5.326;2022-12-18T19:54:06;102006.44;;;18.82;35.22
61554;BME280;47425;51.976;5.326;2022-12-18T19:56:34;102004.63;;;18.83;35.43
61554;BME280;47425;51.976;5.326;2022-12-18T19:59:03;102004.69;;;18.81;35.12
61554;BME280;47425;51.976;5.326;2022-12-18T20:01:30;102002.69;;;18.88;35.16
61554;BME280;47425;51.976;5.326;2022-12-18T20:03:57;101996.72;;;18.81;35.31
61554;BME280;47425;51.976;5.326;2022-12-18T20:06:25;101995.88;;;18.81;34.61
61554;BME280;47425;51.976;5.326;2022-12-18T20:08:55;102007.28;;;18.83;34.77
61554;BME280;47425;51.976;5.326;2022-12-18T20:11:22;102008.16;;;18.83;34.69
61554;BME280;47425;51.976;5.326;2022-12-18T20:13:50;102004.63;;;18.83;34.76
61554;BME280;47425;51.976;5.326;2022-12-18T20:16:16;102007.41;;;18.79;34.78
61554;BME280;47425;51.976;5.326;2022-12-18T20:18:43;102009.19;;;18.79;34.71
61554;BME280;47425;51.976;5.326;2022-12-18T20:21:09;102008.38;;;18.77;35.01
61554;BME280;47425;51.976;5.326;2022-12-18T20:23:36;102015.53;;;18.75;34.90
61554;BME280;47425;51.976;5.326;2022-12-18T20:26:04;102004.03;;;18.74;34.48
61554;BME280;47425;51.976;5.326;2022-12-18T20:28:31;102002.28;;;18.75;34.80
61554;BME280;47425;51.976;5.326;2022-12-18T20:30:58;102003.97;;;18.76;34.81
61554;BME280;47425;51.976;5.326;2022-12-18T20:33:25;102007.47;;;18.78;34.72
61554;BME280;47425;51.976;5.326;2022-12-18T20:35:52;101998.66;;;18.77;34.60
61554;BME280;47425;51.976;5.326;2022-12-18T20:38:18;101999.63;;;18.75;34.50
61554;BME280;47425;51.976;5.326;2022-12-18T20:40:45;101996.22;;;18.71;34.72
61554;BME280;47425;51.976;5.326;2022-12-18T20:43:14;101988.38;;;18.68;34.63
61554;BME280;47425;51.976;5.326;2022-12-18T20:45:40;101983.97;;;18.67;34.97
61554;BME280;47425;51.976;5.326;2022-12-18T20:48:07;101977.00;;;18.65;34.88
61554;BME280;47425;51.976;5.326;2022-12-18T20:50:34;101976.22;;;18.61;34.77
61554;BME280;47425;51.976;5.326;2022-12-18T20:53:01;101986.03;;;18.59;34.64
61554;BME280;47425;51.976;5.326;2022-12-18T20:55:28;101975.56;;;18.56;34.55
61554;BME280;47425;51.976;5.326;2022-12-18T20:57:55;101976.47;;;18.55;34.70
61554;BME280;47425;51.976;5.326;2022-12-18T21:00:38;101965.94;;;18.52;34.84
61554;BME280;47425;51.976;5.326;2022-12-18T21:03:05;101963.47;;;18.47;34.52
61554;BME280;47425;51.976;5.326;2022-12-18T21:05:31;101946.72;;;18.45;34.77
61554;BME280;47425;51.976;5.326;2022-12-18T21:07:58;101940.63;;;18.43;34.97
61554;BME280;47425;51.976;5.326;2022-12-18T21:10:25;101935.44;;;18.40;34.89
61554;BME280;47425;51.976;5.326;2022-12-18T21:12:51;101933.81;;;18.36;34.53
61554;BME280;47425;51.976;5.326;2022-12-18T21:15:17;101926.84;;;18.33;34.56
61554;BME280;47425;51.976;5.326;2022-12-18T21:17:45;101932.16;;;18.32;34.80
61554;BME280;47425;51.976;5.326;2022-12-18T21:20:12;101915.53;;;18.28;35.22
61554;BME280;47425;51.976;5.326;2022-12-18T21:22:39;101912.97;;;18.25;34.55
61554;BME280;47425;51.976;5.326;2022-12-18T21:25:06;101910.38;;;18.23;34.70
61554;BME280;47425;51.976;5.326;2022-12-18T21:27:34;101908.69;;;18.21;34.92
61554;BME280;47425;51.976;5.326;2022-12-18T21:30:00;101910.59;;;18.17;34.58
61554;BME280;47425;51.976;5.326;2022-12-18T21:32:27;101906.22;;;18.16;34.89
61554;BME280;47425;51.976;5.326;2022-12-18T21:34:55;101901.88;;;18.14;34.49
61554;BME280;47425;51.976;5.326;2022-12-18T21:37:22;101916.94;;;18.13;34.65
61554;BME280;47425;51.976;5.326;2022-12-18T21:39:48;101922.31;;;18.10;34.70
61554;BME280;47425;51.976;5.326;2022-12-18T21:42:15;101926.84;;;18.08;34.84
61554;BME280;47425;51.976;5.326;2022-12-18T21:44:59;101911.03;;;18.05;34.79
61554;BME280;47425;51.976;5.326;2022-12-18T21:47:25;101896.97;;;18.03;34.81
61554;BME280;47425;51.976;5.326;2022-12-18T21:49:52;101903.19;;;18.02;34.88
61554;BME280;47425;51.976;5.326;2022-12-18T21:52:20;101910.28;;;18.01;34.73
61554;BME280;47425;51.976;5.326;2022-12-18T21:54:47;101899.72;;;18.00;34.61
61554;BME280;47425;51.976;5.326;2022-12-18T21:57:14;101895.34;;;17.99;34.78
61554;BME280;47425;51.976;5.326;2022-12-18T21:59:41;101885.72;;;17.96;34.84
61554;BME280;47425;51.976;5.326;2022-12-18T22:02:10;101880.47;;;17.94;34.63
61554;BME280;47425;51.976;5.326;2022-12-18T22:04:37;101873.44;;;17.93;34.58
61554;BME280;47425;51.976;5.326;2022-12-18T22:07:04;101862.00;;;17.91;34.73
61554;BME280;47425;51.976;5.326;2022-12-18T22:09:32;101852.38;;;17.89;34.60
61554;BME280;47425;51.976;5.326;2022-12-18T22:11:59;101857.69;;;17.87;34.74
61554;BME280;47425;51.976;5.326;2022-12-18T22:14:26;101853.34;;;17.86;34.59
61554;BME280;47425;51.976;5.326;2022-12-18T22:16:53;101841.06;;;17.84;34.69
61554;BME280;47425;51.976;5.326;2022-12-18T22:19:20;101841.97;;;17.83;34.58
61554;BME280;47425;51.976;5.326;2022-12-18T22:21:47;101837.66;;;17.80;34.50
61554;BME280;47425;51.976;5.326;2022-12-18T22:24:16;101833.25;;;17.79;34.71
61554;BME280;47425;51.976;5.326;2022-12-18T22:26:44;101820.97;;;17.76;34.41
61554;BME280;47425;51.976;5.326;2022-12-18T22:29:13;101820.13;;;17.76;34.87
61554;BME280;47425;51.976;5.326;2022-12-18T22:32:00;101807.84;;;17.73;34.53
61554;BME280;47425;51.976;5.326;2022-12-18T22:34:30;101821.16;;;17.72;34.26
61554;BME280;47425;51.976;5.326;2022-12-18T22:36:57;101797.38;;;17.70;34.41
61554;BME280;47425;51.976;5.326;2022-12-18T22:39:25;101803.56;;;17.69;34.53
61554;BME280;47425;51.976;5.326;2022-12-18T22:41:54;101800.13;;;17.67;34.52
61554;BME280;47425;51.976;5.326;2022-12-18T22:44:20;101793.94;;;17.67;34.74
61554;BME280;47425;51.976;5.326;2022-12-18T22:46:48;101794.91;;;17.64;34.60
61554;BME280;47425;51.976;5.326;2022-12-18T22:49:18;101791.47;;;17.62;34.31
61554;BME280;47425;51.976;5.326;2022-12-18T22:51:45;101774.56;;;17.66;34.59
61554;BME280;47425;51.976;5.326;2022-12-18T22:54:12;101758.94;;;17.58;34.33
61554;BME280;47425;51.976;5.326;2022-12-18T22:56:39;101771.31;;;17.58;34.54
61554;BME280;47425;51.976;5.326;2022-12-18T22:59:14;101761.69;;;17.55;34.41
61554;BME280;47425;51.976;5.326;2022-12-18T23:01:43;101760.81;;;17.55;34.58
61554;BME280;47425;51.976;5.326;2022-12-18T23:06:52;101749.47;;;17.51;34.59
61554;BME280;47425;51.976;5.326;2022-12-18T23:09:20;101751.31;;;17.49;34.57
61554;BME280;47425;51.976;5.326;2022-12-18T23:11:47;101748.72;;;17.48;34.46
61554;BME280;47425;51.976;5.326;2022-12-18T23:14:15;101745.22;;;17.47;34.59
61554;BME280;47425;51.976;5.326;2022-12-18T23:16:42;101752.31;;;17.45;34.27
61554;BME280;47425;51.976;5.326;2022-12-18T23:19:10;101755.88;;;17.44;34.35
61554;BME280;47425;51.976;5.326;2022-12-18T23:21:37;101755.88;;;17.44;34.40
61554;BME280;47425;51.976;5.326;2022-12-18T23:24:04;101753.28;;;17.42;34.47
61554;BME280;47425;51.976;5.326;2022-12-18T23:26:31;101749.78;;;17.42;34.49
61554;BME280;47425;51.976;5.326;2022-12-18T23:28:57;101731.31;;;17.40;34.33
61554;BME280;47425;51.976;5.326;2022-12-18T23:31:28;101725.13;;;17.40;34.43
61554;BME280;47425;51.976;5.326;2022-12-18T23:33:57;101718.16;;;17.37;34.42
61554;BME280;47425;51.976;5.326;2022-12-18T23:36:25;101708.59;;;17.33;34.45
61554;BME280;47425;51.976;5.326;2022-12-18T23:38:54;101701.53;;;17.34;34.45
61554;BME280;47425;51.976;5.326;2022-12-18T23:41:24;101690.94;;;17.34;34.51
61554;BME280;47425;51.976;5.326;2022-12-18T23:43:52;101683.91;;;17.33;34.47
61554;BME280;47425;51.976;5.326;2022-12-18T23:46:21;101694.56;;;17.31;34.43
61554;BME280;47425;51.976;5.326;2022-12-18T23:48:49;101691.94;;;17.30;34.39
61554;BME280;47425;51.976;5.326;2022-12-18T23:51:17;101681.41;;;17.28;34.55
61554;BME280;47425;51.976;5.326;2022-12-18T23:53:45;101693.81;;;17.27;34.41
61554;BME280;47425;51.976;5.326;2022-12-18T23:56:12;101685.91;;;17.26;34.41
61554;BME280;47425;51.976;5.326;2022-12-18T23:58:40;101678.03;;;17.24;34.40
